Time;durP1;ratioP1;P1;durP2;ratioP2;P2;SDS_P1;SDS_P2;PMS_P1;PMS_P2;Temp;Humidity;BMP_temperature;BMP_pressure;BME280_temperature;BME280_humidity;BME280_pressure;Samples;Min_cycle;Max_cycle;Signal;HPM_P1;HPM_P2
2023/04/13 00:01:31;;;;;;;;;9.00;7.50;;;;;;;;117426;1193;24975;-60
2023/04/13 00:04:03;;;;;;;;;7.00;7.00;;;;;;;;117393;1180;25743;-60
2023/04/13 00:06:32;;;;;;;;;7.67;7.67;;;;;;;;117380;1184;25191;-60
2023/04/13 00:09:01;;;;;;;;;8.00;8.00;;;;;;;;117409;1184;26296;-60
2023/04/13 00:11:30;;;;;;;;;9.67;8.67;;;;;;;;117397;1190;25291;-60
2023/04/13 00:13:59;;;;;;;;;9.00;7.00;;;;;;;;117391;1182;25367;-62
2023/04/13 00:16:30;;;;;;;;;8.00;8.00;;;;;;;;117369;1194;25691;-62
2023/04/13 00:18:58;;;;;;;;;10.50;9.00;;;;;;;;117409;1182;25090;-62
2023/04/13 00:21:27;;;;;;;;;11.00;8.00;;;;;;;;117405;1182;24803;-63
2023/04/13 00:23:55;;;;;;;;;10.00;10.00;;;;;;;;117376;1184;25592;-62
2023/04/13 00:26:24;;;;;;;;;6.00;6.00;;;;;;;;117374;1182;25773;-62
2023/04/13 00:28:53;;;;;;;;;9.00;7.50;;;;;;;;117403;1182;25522;-62
2023/04/13 00:31:22;;;;;;;;;12.00;10.00;;;;;;;;117356;1182;25998;-63
2023/04/13 00:33:50;;;;;;;;;10.00;9.00;;;;;;;;117366;1184;25295;-62
2023/04/13 00:36:20;;;;;;;;;9.00;7.33;;;;;;;;117393;1192;26269;-62
2023/04/13 00:38:48;;;;;;;;;8.00;7.00;;;;;;;;117401;1182;25385;-62
2023/04/13 00:41:18;;;;;;;;;8.00;8.00;;;;;;;;117396;1194;26273;-62
2023/04/13 00:43:46;;;;;;;;;9.00;7.00;;;;;;;;117387;1187;25149;-62
2023/04/13 00:46:16;;;;;;;;;10.00;7.00;;;;;;;;117406;1194;25311;-62
2023/04/13 00:48:47;;;;;;;;;4.00;4.00;;;;;;;;117394;1194;24819;-62
2023/04/13 00:51:16;;;;;;;;;10.00;8.00;;;;;;;;117411;1188;25318;-62
2023/04/13 00:53:45;;;;;;;;;8.00;6.67;;;;;;;;117297;1182;25234;-62
2023/04/13 00:56:13;;;;;;;;;7.00;7.00;;;;;;;;117373;1194;25135;-62
2023/04/13 00:58:42;;;;;;;;;6.50;5.00;;;;;;;;117472;1184;25154;-62
2023/04/13 01:01:10;;;;;;;;;7.50;6.50;;;;;;;;117343;1183;25572;-62
2023/04/13 01:03:38;;;;;;;;;11.00;6.00;;;;;;;;117407;1182;25090;-62
2023/04/13 01:06:25;;;;;;;;;8.00;8.00;;;;;;;;117410;1181;25641;-62
2023/04/13 01:09:10;;;;;;;;;9.50;8.00;;;;;;;;117393;1183;25666;-62
2023/04/13 01:12:10;;;;;;;;;8.00;8.00;;;;;;;;117368;1180;25522;-62
2023/04/13 01:14:57;;;;;;;;;7.00;6.00;;;;;;;;117394;1182;25090;-62
2023/04/13 01:17:29;;;;;;;;;6.00;6.00;;;;;;;;117415;1180;25589;-62
2023/04/13 01:20:09;;;;;;;;;8.00;8.00;;;;;;;;117390;1180;25566;-62
2023/04/13 01:22:55;;;;;;;;;9.00;9.00;;;;;;;;117401;1180;25603;-62
2023/04/13 01:25:41;;;;;;;;;10.00;8.00;;;;;;;;117398;1194;25207;-62
2023/04/13 01:28:15;;;;;;;;;10.00;10.00;;;;;;;;117395;1180;25014;-62
2023/04/13 01:30:48;;;;;;;;;9.50;7.50;;;;;;;;117386;1194;25072;-62
2023/04/13 01:33:18;;;;;;;;;8.00;8.00;;;;;;;;117430;1180;25624;-60
2023/04/13 01:35:48;;;;;;;;;9.67;8.00;;;;;;;;117393;1190;24752;-60
2023/04/13 01:38:23;;;;;;;;;10.00;8.00;;;;;;;;117429;1190;25698;-62
2023/04/13 01:40:51;;;;;;;;;8.75;7.75;;;;;;;;117415;1183;25256;-62
2023/04/13 01:43:20;;;;;;;;;8.00;8.00;;;;;;;;117382;1180;26483;-62
2023/04/13 01:46:00;;;;;;;;;11.00;8.00;;;;;;;;117388;1181;25025;-62
2023/04/13 01:48:35;;;;;;;;;9.00;8.00;;;;;;;;117420;1180;25369;-62
2023/04/13 01:51:12;;;;;;;;;12.50;8.50;;;;;;;;117397;1194;25198;-62
2023/04/13 01:53:43;;;;;;;;;11.00;11.00;;;;;;;;117410;1182;25771;-62
2023/04/13 01:56:14;;;;;;;;;10.33;9.00;;;;;;;;117392;1190;25274;-62
2023/04/13 01:58:42;;;;;;;;;8.00;7.50;;;;;;;;117415;1180;25238;-62
2023/04/13 02:01:11;;;;;;;;;10.00;8.00;;;;;;;;117433;1182;25045;-62
2023/04/13 02:03:42;;;;;;;;;7.00;7.00;;;;;;;;117428;1194;25081;-62
2023/04/13 02:06:11;;;;;;;;;8.00;8.00;;;;;;;;117388;1180;25504;-62
2023/04/13 02:08:39;;;;;;;;;9.00;8.50;;;;;;;;117422;1194;25497;-62
2023/04/13 02:11:07;;;;;;;;;11.00;9.00;;;;;;;;117405;1184;25641;-62
2023/04/13 02:13:36;;;;;;;;;9.00;8.67;;;;;;;;117393;1181;24780;-62
2023/04/13 02:16:05;;;;;;;;;8.00;8.00;;;;;;;;117447;1181;25171;-62
2023/04/13 02:18:34;;;;;;;;;6.50;6.00;;;;;;;;117440;1194;25015;-62
2023/04/13 02:21:08;;;;;;;;;9.00;9.00;;;;;;;;117436;1186;25514;-62
2023/04/13 02:23:39;;;;;;;;;9.67;9.00;;;;;;;;117467;1185;24881;-62
2023/04/13 02:26:09;;;;;;;;;12.00;10.00;;;;;;;;117396;1193;25387;-62
2023/04/13 02:28:39;;;;;;;;;11.67;9.33;;;;;;;;117368;1186;25422;-62
2023/04/13 02:31:07;;;;;;;;;14.00;9.00;;;;;;;;117386;1181;25075;-63
2023/04/13 02:33:36;;;;;;;;;11.00;10.00;;;;;;;;117468;1180;25455;-62
2023/04/13 02:36:05;;;;;;;;;9.67;9.67;;;;;;;;117424;1194;25003;-62
2023/04/13 02:38:36;;;;;;;;;11.00;8.00;;;;;;;;117415;1180;25002;-62
2023/04/13 02:41:05;;;;;;;;;8.50;8.50;;;;;;;;117416;1182;24883;-62
2023/04/13 02:43:34;;;;;;;;;6.00;6.00;;;;;;;;117436;1187;25352;-62
2023/04/13 02:46:03;;;;;;;;;11.50;9.50;;;;;;;;117420;1182;25702;-62
2023/04/13 02:48:31;;;;;;;;;10.00;10.00;;;;;;;;117395;1183;24974;-62
2023/04/13 02:51:01;;;;;;;;;9.67;6.67;;;;;;;;117400;1182;26302;-62
2023/04/13 02:53:29;;;;;;;;;10.50;7.50;;;;;;;;117408;1182;24850;-62
2023/04/13 02:55:58;;;;;;;;;12.00;7.00;;;;;;;;117415;1194;25576;-61
2023/04/13 02:58:30;;;;;;;;;12.00;8.00;;;;;;;;117371;1182;25249;-67
2023/04/13 03:00:58;;;;;;;;;8.00;8.00;;;;;;;;117379;1194;24989;-68
2023/04/13 03:03:29;;;;;;;;;10.00;10.00;;;;;;;;117437;1181;26346;-64
2023/04/13 03:06:00;;;;;;;;;9.00;7.00;;;;;;;;117375;1194;25009;-60
2023/04/13 03:08:28;;;;;;;;;11.00;9.33;;;;;;;;117340;1187;24874;-60
2023/04/13 03:10:57;;;;;;;;;9.25;8.50;;;;;;;;117397;1182;25391;-62
2023/04/13 03:13:26;;;;;;;;;9.00;9.00;;;;;;;;117315;1182;25424;-61
2023/04/13 03:15:54;;;;;;;;;9.33;8.33;;;;;;;;117394;1182;25561;-61
2023/04/13 03:18:23;;;;;;;;;10.00;8.50;;;;;;;;117380;1184;25515;-61
2023/04/13 03:20:52;;;;;;;;;12.00;10.00;;;;;;;;117418;1186;25572;-61
2023/04/13 03:23:21;;;;;;;;;9.50;9.00;;;;;;;;117368;1182;25047;-61
2023/04/13 03:25:49;;;;;;;;;11.00;11.00;;;;;;;;117413;1182;25158;-61
2023/04/13 03:28:18;;;;;;;;;11.00;10.00;;;;;;;;117418;1187;25636;-61
2023/04/13 03:30:47;;;;;;;;;10.00;8.00;;;;;;;;117452;1182;24821;-61
2023/04/13 03:33:15;;;;;;;;;5.67;4.33;;;;;;;;117459;1194;25191;-61
2023/04/13 03:35:43;;;;;;;;;12.00;11.00;;;;;;;;117418;1194;25121;-61
2023/04/13 03:38:12;;;;;;;;;10.00;8.00;;;;;;;;117428;1184;25419;-61
2023/04/13 03:40:41;;;;;;;;;10.00;9.00;;;;;;;;117329;1182;25408;-61
2023/04/13 03:43:09;;;;;;;;;10.67;10.00;;;;;;;;117438;1182;25191;-61
2023/04/13 03:45:38;;;;;;;;;10.00;9.00;;;;;;;;117401;1182;25517;-61
2023/04/13 03:48:06;;;;;;;;;11.67;9.00;;;;;;;;117388;1182;25026;-61
2023/04/13 03:50:35;;;;;;;;;13.00;11.00;;;;;;;;117431;1182;24910;-62
2023/04/13 03:53:03;;;;;;;;;11.00;11.00;;;;;;;;117393;1194;25445;-61
2023/04/13 03:55:32;;;;;;;;;10.00;10.00;;;;;;;;117363;1185;25295;-62
2023/04/13 03:58:00;;;;;;;;;14.50;10.50;;;;;;;;117355;1194;24932;-62
2023/04/13 04:00:29;;;;;;;;;10.50;9.50;;;;;;;;117387;1194;25596;-62
2023/04/13 04:02:58;;;;;;;;;11.50;11.00;;;;;;;;117430;1186;24973;-62
2023/04/13 04:05:26;;;;;;;;;12.33;9.33;;;;;;;;117410;1180;25114;-63
2023/04/13 04:07:55;;;;;;;;;9.00;9.00;;;;;;;;117403;1183;25076;-62
2023/04/13 04:10:23;;;;;;;;;13.00;11.00;;;;;;;;117416;1193;25393;-62
2023/04/13 04:12:51;;;;;;;;;14.50;11.50;;;;;;;;117422;1180;25417;-62
2023/04/13 04:15:20;;;;;;;;;11.00;9.00;;;;;;;;117417;1180;25296;-62
2023/04/13 04:17:48;;;;;;;;;10.50;9.50;;;;;;;;117403;1182;25080;-61
2023/04/13 04:20:17;;;;;;;;;10.00;9.00;;;;;;;;117383;1182;24888;-62
2023/04/13 04:22:46;;;;;;;;;9.00;9.00;;;;;;;;117363;1182;25307;-62
2023/04/13 04:25:21;;;;;;;;;10.33;9.33;;;;;;;;117401;1194;25669;-61
2023/04/13 04:27:56;;;;;;;;;9.00;7.00;;;;;;;;117392;1184;25184;-60
2023/04/13 04:30:28;;;;;;;;;15.00;9.00;;;;;;;;117411;1184;25278;-64
2023/04/13 04:32:57;;;;;;;;;8.00;7.00;;;;;;;;117376;1182;24738;-62
2023/04/13 04:35:31;;;;;;;;;9.33;9.33;;;;;;;;117340;1182;25240;-63
2023/04/13 04:38:04;;;;;;;;;10.00;9.00;;;;;;;;117388;1190;25335;-61
2023/04/13 04:40:35;;;;;;;;;9.00;8.67;;;;;;;;117343;1194;24727;-61
2023/04/13 04:43:03;;;;;;;;;8.00;6.50;;;;;;;;117374;1184;25363;-61
2023/04/13 04:45:32;;;;;;;;;9.00;8.00;;;;;;;;117370;1194;25373;-61
2023/04/13 04:48:02;;;;;;;;;10.00;9.00;;;;;;;;117351;1194;24715;-61
2023/04/13 04:50:30;;;;;;;;;8.00;7.00;;;;;;;;117402;1193;25501;-61
2023/04/13 04:52:59;;;;;;;;;10.00;9.00;;;;;;;;117413;1180;25167;-62
2023/04/13 04:55:27;;;;;;;;;10.75;9.75;;;;;;;;117375;1180;25378;-61
2023/04/13 04:57:55;;;;;;;;;12.33;8.33;;;;;;;;117386;1194;24804;-61
2023/04/13 05:00:25;;;;;;;;;8.00;8.00;;;;;;;;117384;1192;26086;-61
2023/04/13 05:02:53;;;;;;;;;10.00;9.00;;;;;;;;117421;1180;24825;-62
2023/04/13 05:05:24;;;;;;;;;12.25;9.75;;;;;;;;117380;1183;25195;-61
2023/04/13 05:07:52;;;;;;;;;8.67;8.67;;;;;;;;117407;1184;24827;-61
2023/04/13 05:10:23;;;;;;;;;13.00;9.33;;;;;;;;117370;1182;24942;-61
2023/04/13 05:12:51;;;;;;;;;8.00;8.00;;;;;;;;117381;1194;25678;-61
2023/04/13 05:15:20;;;;;;;;;12.00;9.67;;;;;;;;117418;1182;25632;-61
2023/04/13 05:17:49;;;;;;;;;12.00;11.50;;;;;;;;117360;1195;25213;-61
2023/04/13 05:20:18;;;;;;;;;12.00;9.50;;;;;;;;117396;1182;25005;-61
2023/04/13 05:22:46;;;;;;;;;10.50;10.50;;;;;;;;117342;1182;25599;-62
2023/04/13 05:25:15;;;;;;;;;9.00;9.00;;;;;;;;117388;1190;25391;-64
2023/04/13 05:27:43;;;;;;;;;8.50;6.00;;;;;;;;117356;1194;25258;-63
2023/04/13 05:30:12;;;;;;;;;10.00;7.00;;;;;;;;117369;1180;25834;-65
2023/04/13 05:32:42;;;;;;;;;9.50;9.50;;;;;;;;117420;1180;25286;-67
2023/04/13 05:35:10;;;;;;;;;8.25;8.25;;;;;;;;117446;1180;24829;-63
2023/04/13 05:37:39;;;;;;;;;9.00;9.00;;;;;;;;117362;1184;25550;-62
2023/04/13 05:40:13;;;;;;;;;11.50;11.50;;;;;;;;117339;1182;25147;-63
2023/04/13 05:42:42;;;;;;;;;9.33;9.00;;;;;;;;117356;1194;25517;-62
2023/04/13 05:45:11;;;;;;;;;7.00;5.50;;;;;;;;117431;1180;24834;-62
2023/04/13 05:47:39;;;;;;;;;12.00;9.50;;;;;;;;117368;1194;25265;-66
2023/04/13 05:50:08;;;;;;;;;12.67;9.67;;;;;;;;117404;1192;25613;-62
2023/04/13 05:52:37;;;;;;;;;12.67;8.33;;;;;;;;117407;1182;25565;-64
2023/04/13 05:55:06;;;;;;;;;14.00;11.00;;;;;;;;117351;1194;26325;-62
2023/04/13 05:57:35;;;;;;;;;12.00;11.67;;;;;;;;117413;1194;25112;-66
2023/04/13 06:00:06;;;;;;;;;16.00;13.00;;;;;;;;117403;1190;25092;-65
2023/04/13 06:02:37;;;;;;;;;15.00;13.50;;;;;;;;117379;1190;25063;-65
2023/04/13 06:05:06;;;;;;;;;19.33;14.33;;;;;;;;117344;1190;24701;-68
2023/04/13 06:07:35;;;;;;;;;11.00;11.00;;;;;;;;117445;1187;24716;-66
2023/04/13 06:10:05;;;;;;;;;11.67;11.00;;;;;;;;117403;1186;24728;-67
2023/04/13 06:12:33;;;;;;;;;12.00;9.00;;;;;;;;117355;1187;25649;-65
2023/04/13 06:15:03;;;;;;;;;13.50;13.00;;;;;;;;118455;1193;25432;-67
2023/04/13 06:17:31;;;;;;;;;14.00;12.00;;;;;;;;117424;1185;25213;-70
2023/04/13 06:20:00;;;;;;;;;18.00;16.50;;;;;;;;117425;1180;25388;-65
2023/04/13 06:22:29;;;;;;;;;16.00;13.50;;;;;;;;117349;1194;25534;-62
2023/04/13 06:24:58;;;;;;;;;16.00;12.50;;;;;;;;117396;1180;25509;-65
2023/04/13 06:27:27;;;;;;;;;21.00;15.50;;;;;;;;117394;1184;25549;-66
2023/04/13 06:29:56;;;;;;;;;16.67;13.33;;;;;;;;117406;1194;26127;-66
2023/04/13 06:32:25;;;;;;;;;15.33;12.67;;;;;;;;117409;1194;24840;-66
2023/04/13 06:34:53;;;;;;;;;12.00;10.00;;;;;;;;117430;1180;25074;-66
2023/04/13 06:37:22;;;;;;;;;15.00;13.00;;;;;;;;117396;1180;25400;-66
2023/04/13 06:39:51;;;;;;;;;14.00;13.00;;;;;;;;117446;1182;24836;-65
2023/04/13 06:42:20;;;;;;;;;12.67;11.33;;;;;;;;117385;1181;25084;-66
2023/04/13 06:44:48;;;;;;;;;15.00;13.67;;;;;;;;117400;1193;25217;-66
2023/04/13 06:47:16;;;;;;;;;16.00;13.67;;;;;;;;117403;1180;25113;-67
2023/04/13 06:49:46;;;;;;;;;16.25;13.75;;;;;;;;117421;1189;25142;-66
2023/04/13 06:52:15;;;;;;;;;14.67;12.00;;;;;;;;117362;1181;25372;-66
2023/04/13 06:54:43;;;;;;;;;14.00;12.25;;;;;;;;117447;1193;25132;-65
2023/04/13 06:57:12;;;;;;;;;12.50;12.00;;;;;;;;117426;1181;24872;-65
2023/04/13 06:59:40;;;;;;;;;15.33;12.00;;;;;;;;117392;1180;25357;-65
2023/04/13 07:02:09;;;;;;;;;10.50;9.00;;;;;;;;117398;1186;25558;-65
2023/04/13 07:04:38;;;;;;;;;17.00;13.00;;;;;;;;117437;1189;25216;-66
2023/04/13 07:07:06;;;;;;;;;12.67;10.33;;;;;;;;117416;1181;25418;-66
2023/04/13 07:09:35;;;;;;;;;15.00;13.00;;;;;;;;117397;1194;25716;-67
2023/04/13 07:12:04;;;;;;;;;10.00;8.00;;;;;;;;117388;1194;24987;-66
2023/04/13 07:14:34;;;;;;;;;11.00;11.00;;;;;;;;117404;1194;25126;-66
2023/04/13 07:17:03;;;;;;;;;12.50;9.50;;;;;;;;117416;1180;25646;-66
2023/04/13 07:19:34;;;;;;;;;12.33;10.00;;;;;;;;117432;1194;24919;-66
2023/04/13 07:22:03;;;;;;;;;12.00;12.00;;;;;;;;117438;1180;25783;-66
2023/04/13 07:24:33;;;;;;;;;13.00;9.00;;;;;;;;117413;1180;24847;-66
2023/04/13 07:27:02;;;;;;;;;16.00;13.00;;;;;;;;117421;1180;26434;-66
2023/04/13 07:29:30;;;;;;;;;13.00;10.50;;;;;;;;117381;1186;24941;-66
2023/04/13 07:32:04;;;;;;;;;10.00;9.00;;;;;;;;117404;1183;25086;-66
2023/04/13 07:34:32;;;;;;;;;13.00;11.00;;;;;;;;117391;1193;25415;-65
2023/04/13 07:37:01;;;;;;;;;15.67;14.00;;;;;;;;117395;1181;25578;-66
2023/04/13 07:39:29;;;;;;;;;12.00;10.00;;;;;;;;117373;1180;25736;-66
2023/04/13 07:41:58;;;;;;;;;9.00;8.00;;;;;;;;117395;1193;25685;-66
2023/04/13 07:44:27;;;;;;;;;10.00;10.00;;;;;;;;117364;1182;24793;-65
2023/04/13 07:46:56;;;;;;;;;13.00;10.50;;;;;;;;117435;1193;25102;-65
2023/04/13 07:49:24;;;;;;;;;12.00;10.00;;;;;;;;117405;1180;25148;-65
2023/04/13 07:51:53;;;;;;;;;10.50;10.50;;;;;;;;117405;1180;26296;-65
2023/04/13 07:54:22;;;;;;;;;16.00;12.00;;;;;;;;117442;1193;26010;-65
2023/04/13 07:56:50;;;;;;;;;11.00;11.00;;;;;;;;117422;1182;25580;-65
2023/04/13 07:59:18;;;;;;;;;13.25;10.50;;;;;;;;117417;1181;25587;-65
2023/04/13 08:01:47;;;;;;;;;11.00;11.00;;;;;;;;117402;1189;25469;-65
2023/04/13 08:04:15;;;;;;;;;15.00;11.00;;;;;;;;117396;1180;24801;-65
2023/04/13 08:06:44;;;;;;;;;12.00;10.00;;;;;;;;117393;1194;25426;-65
2023/04/13 08:09:13;;;;;;;;;12.00;10.00;;;;;;;;117447;1180;25577;-65
2023/04/13 08:11:42;;;;;;;;;12.00;11.00;;;;;;;;117398;1180;26475;-66
2023/04/13 08:14:10;;;;;;;;;14.00;10.00;;;;;;;;117526;1180;25361;-67
2023/04/13 08:16:39;;;;;;;;;10.00;10.00;;;;;;;;117421;1191;25444;-67
2023/04/13 08:19:07;;;;;;;;;9.50;9.50;;;;;;;;117369;1192;26377;-67
2023/04/13 08:21:37;;;;;;;;;13.33;10.33;;;;;;;;117402;1183;25359;-67
2023/04/13 08:24:05;;;;;;;;;9.00;8.00;;;;;;;;117389;1181;25576;-67
2023/04/13 08:26:34;;;;;;;;;13.00;11.00;;;;;;;;117394;1180;25778;-66
2023/04/13 08:29:02;;;;;;;;;9.00;8.00;;;;;;;;117459;1180;24927;-66
2023/04/13 08:31:31;;;;;;;;;12.00;10.67;;;;;;;;117392;1182;25716;-65
2023/04/13 08:34:00;;;;;;;;;12.50;10.50;;;;;;;;117395;1194;25511;-65
2023/04/13 08:36:28;;;;;;;;;11.00;9.00;;;;;;;;117414;1193;25422;-66
2023/04/13 08:38:57;;;;;;;;;9.33;9.33;;;;;;;;117393;1194;25257;-65
2023/04/13 08:41:26;;;;;;;;;15.50;11.00;;;;;;;;117363;1185;24728;-65
2023/04/13 08:43:54;;;;;;;;;14.00;12.00;;;;;;;;117398;1182;24844;-65
2023/04/13 08:46:23;;;;;;;;;13.00;9.00;;;;;;;;117435;1181;25313;-65
2023/04/13 08:48:53;;;;;;;;;7.00;7.00;;;;;;;;117438;1180;25413;-66
2023/04/13 08:51:22;;;;;;;;;10.00;8.00;;;;;;;;117411;1182;25295;-66
2023/04/13 08:53:57;;;;;;;;;9.00;7.00;;;;;;;;117464;1194;25022;-66
2023/04/13 08:56:27;;;;;;;;;9.00;9.00;;;;;;;;117430;1182;25122;-66
2023/04/13 08:59:14;;;;;;;;;11.00;10.00;;;;;;;;117470;1182;25601;-66
2023/04/13 09:01:47;;;;;;;;;9.00;9.00;;;;;;;;117450;1182;25153;-66
2023/04/13 09:04:19;;;;;;;;;14.50;10.00;;;;;;;;117442;1191;25060;-66
2023/04/13 09:06:50;;;;;;;;;9.00;8.00;;;;;;;;117424;1181;25714;-66
2023/04/13 09:09:20;;;;;;;;;12.00;11.00;;;;;;;;117399;1191;25151;-66
2023/04/13 09:11:49;;;;;;;;;9.67;8.67;;;;;;;;117403;1180;25568;-65
2023/04/13 09:14:19;;;;;;;;;9.00;8.33;;;;;;;;117385;1180;24955;-65
2023/04/13 09:16:49;;;;;;;;;10.00;9.25;;;;;;;;117396;1193;25458;-66
2023/04/13 09:19:29;;;;;;;;;12.00;8.00;;;;;;;;117389;1182;25711;-66
2023/04/13 09:21:57;;;;;;;;;11.00;8.00;;;;;;;;117403;1180;25253;-66
2023/04/13 09:24:38;;;;;;;;;10.50;9.00;;;;;;;;117403;1182;24809;-66
2023/04/13 09:27:19;;;;;;;;;13.00;8.50;;;;;;;;117421;1181;25342;-67
2023/04/13 09:29:50;;;;;;;;;10.50;9.00;;;;;;;;117428;1182;25828;-67
2023/04/13 09:32:27;;;;;;;;;13.00;11.00;;;;;;;;117439;1180;25700;-66
2023/04/13 09:35:07;;;;;;;;;6.00;5.00;;;;;;;;117435;1184;24962;-74
2023/04/13 09:37:40;;;;;;;;;10.00;7.50;;;;;;;;117427;1185;25445;-71
2023/04/13 09:40:17;;;;;;;;;11.00;11.00;;;;;;;;117419;1182;24756;-73
2023/04/13 09:43:08;;;;;;;;;8.67;8.33;;;;;;;;117390;1183;25205;-64
2023/04/13 09:45:38;;;;;;;;;9.00;8.00;;;;;;;;117394;1194;25065;-66
2023/04/13 09:48:20;;;;;;;;;8.00;8.00;;;;;;;;117425;1186;25348;-65
2023/04/13 09:50:59;;;;;;;;;9.00;9.00;;;;;;;;117378;1189;25014;-65
2023/04/13 09:53:41;;;;;;;;;12.00;8.00;;;;;;;;117399;1194;25347;-65
2023/04/13 09:56:10;;;;;;;;;8.67;8.33;;;;;;;;117370;1180;25470;-66
2023/04/13 09:58:43;;;;;;;;;8.67;8.67;;;;;;;;117406;1184;25250;-66
2023/04/13 10:01:15;;;;;;;;;10.00;8.00;;;;;;;;117393;1194;24703;-66
2023/04/13 10:03:44;;;;;;;;;8.50;8.50;;;;;;;;117406;1182;25520;-65
2023/04/13 10:06:13;;;;;;;;;9.50;8.00;;;;;;;;117424;1194;25304;-66
2023/04/13 10:08:41;;;;;;;;;8.00;7.00;;;;;;;;117418;1183;25422;-66
2023/04/13 10:11:13;;;;;;;;;10.33;10.33;;;;;;;;117392;1194;25302;-66
2023/04/13 10:13:51;;;;;;;;;8.00;8.00;;;;;;;;117379;1182;25381;-66
2023/04/13 10:16:45;;;;;;;;;11.00;8.67;;;;;;;;117410;1180;25509;-65
2023/04/13 10:19:19;;;;;;;;;7.00;7.00;;;;;;;;117431;1194;25374;-65
2023/04/13 10:21:50;;;;;;;;;9.00;8.00;;;;;;;;117407;1183;25236;-66
2023/04/13 10:24:20;;;;;;;;;10.00;8.00;;;;;;;;117431;1180;25790;-65
2023/04/13 10:26:54;;;;;;;;;8.50;6.25;;;;;;;;117356;1183;24994;-65
2023/04/13 10:29:29;;;;;;;;;11.00;10.00;;;;;;;;117371;1181;25851;-65
2023/04/13 10:32:01;;;;;;;;;8.00;7.00;;;;;;;;117422;1194;25055;-65
2023/04/13 10:34:37;;;;;;;;;10.33;7.67;;;;;;;;117394;1194;25510;-66
2023/04/13 10:37:18;;;;;;;;;6.00;6.00;;;;;;;;117421;1182;24913;-65
2023/04/13 10:39:47;;;;;;;;;8.75;6.25;;;;;;;;117386;1194;25594;-66
2023/04/13 10:42:15;;;;;;;;;8.00;8.00;;;;;;;;117395;1182;25736;-65
2023/04/13 10:44:49;;;;;;;;;10.00;10.00;;;;;;;;117397;1185;24754;-65
2023/04/13 10:47:20;;;;;;;;;8.00;8.00;;;;;;;;117393;1181;25208;-65
2023/04/13 10:49:50;;;;;;;;;5.00;4.00;;;;;;;;117426;1183;24849;-65
2023/04/13 10:52:19;;;;;;;;;8.00;8.00;;;;;;;;117406;1194;24702;-66
2023/04/13 10:54:48;;;;;;;;;11.00;9.00;;;;;;;;117416;1190;25690;-65
2023/04/13 10:57:17;;;;;;;;;8.00;7.50;;;;;;;;117434;1180;25122;-65
2023/04/13 10:59:52;;;;;;;;;8.33;8.00;;;;;;;;117407;1180;25173;-66
2023/04/13 11:02:30;;;;;;;;;10.00;9.00;;;;;;;;117389;1193;25416;-66
2023/04/13 11:05:00;;;;;;;;;7.00;5.00;;;;;;;;117440;1189;25601;-66
2023/04/13 11:07:30;;;;;;;;;7.00;6.67;;;;;;;;117411;1184;25690;-65
2023/04/13 11:09:58;;;;;;;;;6.00;6.00;;;;;;;;117354;1182;25136;-66
2023/04/13 11:12:30;;;;;;;;;8.00;8.00;;;;;;;;117392;1194;25498;-66
2023/04/13 11:14:59;;;;;;;;;8.00;6.50;;;;;;;;117435;1186;25432;-66
2023/04/13 11:17:28;;;;;;;;;9.50;7.00;;;;;;;;117420;1181;25473;-66
2023/04/13 11:19:58;;;;;;;;;9.00;6.00;;;;;;;;117421;1181;25010;-66
2023/04/13 11:22:34;;;;;;;;;8.00;8.00;;;;;;;;117454;1181;25087;-66
2023/04/13 11:25:07;;;;;;;;;10.00;7.33;;;;;;;;117427;1182;25608;-65
2023/04/13 11:27:39;;;;;;;;;13.00;10.00;;;;;;;;117428;1180;25648;-65
2023/04/13 11:30:09;;;;;;;;;9.00;8.00;;;;;;;;117416;1194;25598;-65
2023/04/13 11:32:44;;;;;;;;;8.00;7.00;;;;;;;;117402;1180;25300;-65
2023/04/13 11:35:13;;;;;;;;;6.00;6.00;;;;;;;;117429;1182;24882;-65
2023/04/13 11:37:47;;;;;;;;;9.00;7.50;;;;;;;;117422;1180;25501;-65
2023/04/13 11:40:20;;;;;;;;;8.00;8.00;;;;;;;;117401;1182;25474;-65
2023/04/13 11:42:53;;;;;;;;;8.00;7.50;;;;;;;;117338;1186;25476;-65
2023/04/13 11:45:25;;;;;;;;;9.00;9.00;;;;;;;;117342;1194;25258;-65
2023/04/13 11:47:55;;;;;;;;;10.33;9.00;;;;;;;;117373;1184;25344;-66
2023/04/13 11:50:24;;;;;;;;;9.50;9.50;;;;;;;;117315;1187;25783;-66
2023/04/13 11:52:55;;;;;;;;;12.33;8.00;;;;;;;;117507;1194;25669;-66
2023/04/13 11:55:24;;;;;;;;;6.33;6.00;;;;;;;;117413;1184;25154;-66
2023/04/13 11:57:53;;;;;;;;;5.00;5.00;;;;;;;;117404;1182;25553;-66
2023/04/13 12:00:24;;;;;;;;;9.50;9.50;;;;;;;;117331;1182;25119;-67
2023/04/13 12:02:58;;;;;;;;;6.50;6.50;;;;;;;;117411;1194;25666;-66
2023/04/13 12:05:32;;;;;;;;;8.00;7.00;;;;;;;;117343;1183;25704;-66
2023/04/13 12:08:01;;;;;;;;;8.00;8.00;;;;;;;;117450;1191;24853;-65
2023/04/13 12:10:33;;;;;;;;;9.00;8.00;;;;;;;;117427;1181;26022;-65
2023/04/13 12:13:08;;;;;;;;;10.50;9.50;;;;;;;;117438;1194;25520;-65
2023/04/13 12:15:45;;;;;;;;;9.33;7.67;;;;;;;;117402;1194;25157;-65
2023/04/13 12:18:42;;;;;;;;;7.00;6.50;;;;;;;;117431;1194;24908;-65
2023/04/13 12:21:14;;;;;;;;;12.00;9.00;;;;;;;;117433;1182;25537;-65
2023/04/13 12:24:00;;;;;;;;;8.00;7.00;;;;;;;;117386;1194;25800;-65
2023/04/13 12:26:35;;;;;;;;;7.00;7.00;;;;;;;;117426;1181;25226;-65
2023/04/13 12:29:07;;;;;;;;;7.00;6.00;;;;;;;;117405;1180;25155;-65
2023/04/13 12:31:38;;;;;;;;;8.00;7.00;;;;;;;;117406;1182;25349;-65
2023/04/13 12:34:06;;;;;;;;;8.33;6.67;;;;;;;;117444;1189;24885;-65
2023/04/13 12:36:35;;;;;;;;;8.00;7.33;;;;;;;;117434;1181;25490;-65
2023/04/13 12:39:05;;;;;;;;;8.00;7.00;;;;;;;;117418;1194;24775;-65
2023/04/13 12:41:34;;;;;;;;;9.67;7.00;;;;;;;;117406;1182;24836;-65
2023/04/13 12:44:02;;;;;;;;;9.67;7.00;;;;;;;;117465;1184;24827;-66
2023/04/13 12:46:31;;;;;;;;;9.00;6.00;;;;;;;;117412;1180;25170;-65
2023/04/13 12:48:59;;;;;;;;;8.00;5.50;;;;;;;;117441;1187;25594;-66
2023/04/13 12:51:28;;;;;;;;;7.50;6.50;;;;;;;;117425;1180;26078;-66
2023/04/13 12:53:57;;;;;;;;;6.67;6.67;;;;;;;;117434;1180;25649;-66
2023/04/13 12:56:25;;;;;;;;;8.00;5.00;;;;;;;;117390;1194;24991;-67
2023/04/13 12:58:55;;;;;;;;;12.00;7.33;;;;;;;;117476;1194;25631;-67
2023/04/13 13:01:23;;;;;;;;;8.00;6.50;;;;;;;;117452;1182;25292;-67
2023/04/13 13:03:52;;;;;;;;;6.00;6.00;;;;;;;;117426;1180;25682;-65
2023/04/13 13:06:20;;;;;;;;;7.00;7.00;;;;;;;;117401;1180;26341;-65
2023/04/13 13:08:50;;;;;;;;;7.00;7.00;;;;;;;;117393;1184;24742;-65
2023/04/13 13:11:18;;;;;;;;;8.00;8.00;;;;;;;;117429;1180;24852;-65
2023/04/13 13:13:47;;;;;;;;;7.50;7.50;;;;;;;;117384;1180;25573;-65
2023/04/13 13:16:16;;;;;;;;;8.67;6.33;;;;;;;;117384;1181;25112;-65
2023/04/13 13:18:45;;;;;;;;;7.00;7.00;;;;;;;;117418;1186;25173;-65
2023/04/13 13:21:18;;;;;;;;;6.00;5.00;;;;;;;;117407;1180;25630;-65
2023/04/13 13:23:47;;;;;;;;;10.00;8.00;;;;;;;;117430;1186;25661;-65
2023/04/13 13:26:15;;;;;;;;;4.50;4.00;;;;;;;;117405;1180;24851;-65
2023/04/13 13:28:46;;;;;;;;;8.00;8.00;;;;;;;;117404;1180;25713;-65
2023/04/13 13:31:15;;;;;;;;;7.00;7.00;;;;;;;;117383;1182;24756;-65
2023/04/13 13:33:43;;;;;;;;;7.00;6.00;;;;;;;;117417;1180;25947;-65
2023/04/13 13:36:12;;;;;;;;;4.25;4.25;;;;;;;;117416;1182;25072;-65
2023/04/13 13:38:42;;;;;;;;;7.00;6.00;;;;;;;;117400;1186;24856;-65
2023/04/13 13:41:10;;;;;;;;;4.00;4.00;;;;;;;;117430;1184;25597;-65
2023/04/13 13:43:39;;;;;;;;;6.00;6.00;;;;;;;;117408;1180;24730;-67
2023/04/13 13:46:07;;;;;;;;;9.00;8.00;;;;;;;;117412;1194;25943;-67
2023/04/13 13:48:36;;;;;;;;;4.67;4.00;;;;;;;;117419;1180;25395;-66
2023/04/13 13:51:05;;;;;;;;;7.00;7.00;;;;;;;;117433;1182;24984;-66
2023/04/13 13:53:35;;;;;;;;;5.00;5.00;;;;;;;;117336;1183;25245;-66
2023/04/13 13:56:05;;;;;;;;;7.00;7.00;;;;;;;;117437;1180;25034;-66
2023/04/13 13:58:33;;;;;;;;;9.00;7.50;;;;;;;;117403;1181;25170;-66
2023/04/13 14:01:03;;;;;;;;;8.00;5.50;;;;;;;;117387;1181;25565;-66
2023/04/13 14:03:32;;;;;;;;;8.00;7.00;;;;;;;;117421;1184;25275;-66
2023/04/13 14:06:01;;;;;;;;;5.00;5.00;;;;;;;;117436;1180;25427;-66
2023/04/13 14:08:29;;;;;;;;;6.00;6.00;;;;;;;;117404;1183;25198;-66
2023/04/13 14:10:59;;;;;;;;;6.00;6.00;;;;;;;;117406;1193;25203;-66
2023/04/13 14:13:29;;;;;;;;;7.00;6.33;;;;;;;;117388;1181;25512;-66
2023/04/13 14:15:58;;;;;;;;;7.67;6.33;;;;;;;;117380;1180;25195;-66
2023/04/13 14:18:26;;;;;;;;;7.00;7.00;;;;;;;;117376;1193;24942;-66
2023/04/13 14:20:56;;;;;;;;;6.50;4.00;;;;;;;;117420;1180;25308;-66
2023/04/13 14:23:25;;;;;;;;;9.50;7.00;;;;;;;;117343;1184;24969;-66
2023/04/13 14:25:53;;;;;;;;;5.25;4.75;;;;;;;;117445;1181;25008;-66
2023/04/13 14:28:22;;;;;;;;;6.00;6.00;;;;;;;;117399;1194;25582;-66
2023/04/13 14:30:50;;;;;;;;;8.00;5.50;;;;;;;;117396;1180;25318;-66
2023/04/13 14:33:19;;;;;;;;;8.00;8.00;;;;;;;;117381;1187;25145;-66
2023/04/13 14:35:47;;;;;;;;;7.00;4.00;;;;;;;;117402;1191;25193;-66
2023/04/13 14:38:15;;;;;;;;;8.00;6.50;;;;;;;;117394;1194;24921;-66
2023/04/13 14:40:44;;;;;;;;;6.33;5.00;;;;;;;;117380;1180;25630;-64